createdAt,value
2022-07-30T00:00:38.173Z,21.96
2022-07-30T00:03:43.678Z,21.82
2022-07-30T00:06:49.420Z,21.94
2022-07-30T00:09:54.613Z,21.85
2022-07-30T00:13:00.490Z,21.85
2022-07-30T00:16:05.750Z,21.73
2022-07-30T00:19:11.676Z,21.68
2022-07-30T00:22:18.323Z,21.55
2022-07-30T00:25:24.206Z,21.66
2022-07-30T00:28:29.815Z,21.68
2022-07-30T00:31:35.516Z,21.75
2022-07-30T00:34:41.326Z,21.66
2022-07-30T00:37:46.968Z,21.49
2022-07-30T00:40:54.114Z,21.61
2022-07-30T00:43:59.615Z,21.78
2022-07-30T00:47:05.251Z,21.73
2022-07-30T00:50:13.860Z,21.60
2022-07-30T00:53:19.266Z,21.53
2022-07-30T00:56:24.625Z,21.68
2022-07-30T00:59:31.875Z,21.69
2022-07-30T01:02:38.172Z,21.51
2022-07-30T01:05:43.994Z,21.43
2022-07-30T01:08:49.766Z,21.49
2022-07-30T01:11:56.268Z,21.28
2022-07-30T01:15:05.337Z,21.29
2022-07-30T01:18:14.426Z,21.31
2022-07-30T01:21:29.826Z,21.23
2022-07-30T01:24:40.531Z,21.17
2022-07-30T01:27:57.693Z,21.17
2022-07-30T01:31:05.453Z,21.22
2022-07-30T01:34:15.120Z,21.24
2022-07-30T01:37:22.433Z,21.16
2022-07-30T01:40:30.932Z,21.25
2022-07-30T01:43:37.354Z,21.28
2022-07-30T01:46:43.410Z,21.20
2022-07-30T01:49:50.208Z,21.20
2022-07-30T01:52:58.205Z,21.05
2022-07-30T01:56:05.951Z,20.95
2022-07-30T01:59:21.230Z,21.03
2022-07-30T02:02:26.945Z,20.94
2022-07-30T02:05:35.416Z,20.86
2022-07-30T02:08:59.078Z,20.79
2022-07-30T02:12:27.511Z,20.80
2022-07-30T02:15:46.886Z,20.71
2022-07-30T02:19:06.054Z,20.80
2022-07-30T02:22:19.050Z,20.72
2022-07-30T02:25:29.233Z,20.86
2022-07-30T02:28:39.918Z,20.90
2022-07-30T02:31:46.293Z,20.89
2022-07-30T02:34:57.651Z,20.96
2022-07-30T02:38:06.079Z,20.78
2022-07-30T02:41:13.310Z,20.76
2022-07-30T02:44:21.206Z,20.76
2022-07-30T02:47:28.416Z,20.76
2022-07-30T02:50:40.636Z,20.72
2022-07-30T02:53:52.943Z,20.64
2022-07-30T02:57:02.088Z,20.68
2022-07-30T03:00:09.208Z,20.79
2022-07-30T03:03:16.393Z,20.76
2022-07-30T03:06:25.812Z,20.83
2022-07-30T03:09:51.984Z,20.73
2022-07-30T03:12:59.500Z,20.47
2022-07-30T03:16:09.219Z,20.73
2022-07-30T03:19:17.560Z,20.68
2022-07-30T03:22:31.220Z,20.68
2022-07-30T03:25:42.785Z,20.64
2022-07-30T03:28:49.632Z,20.67
2022-07-30T03:31:55.609Z,20.68
2022-07-30T03:35:06.092Z,20.60
2022-07-30T03:38:18.097Z,20.70
2022-07-30T03:41:25.165Z,20.63
2022-07-30T03:44:35.132Z,20.67
2022-07-30T03:47:44.226Z,20.62
2022-07-30T03:50:54.277Z,20.61
2022-07-30T03:54:01.806Z,20.65
2022-07-30T03:57:20.402Z,20.73
2022-07-30T04:00:28.837Z,20.71
2022-07-30T04:03:34.604Z,20.67
2022-07-30T04:06:43.488Z,20.76
2022-07-30T04:09:49.574Z,20.76
2022-07-30T04:13:09.734Z,20.71
2022-07-30T04:16:41.231Z,20.73
2022-07-30T04:20:31.887Z,20.85
2022-07-30T04:24:04.714Z,20.80
2022-07-30T04:27:06.989Z,20.88
2022-07-30T04:30:13.137Z,20.93
2022-07-30T04:33:18.775Z,21.01
2022-07-30T04:36:44.692Z,20.92
2022-07-30T04:39:55.040Z,20.93
2022-07-30T04:43:00.587Z,21.05
2022-07-30T04:46:05.855Z,21.05
2022-07-30T04:49:13.218Z,21.14
2022-07-30T04:52:20.018Z,21.09
2022-07-30T04:55:27.779Z,21.26
2022-07-30T04:58:35.757Z,21.35
2022-07-30T05:01:43.307Z,21.36
2022-07-30T05:04:50.488Z,21.46
2022-07-30T05:07:56.818Z,21.55
2022-07-30T05:11:03.647Z,21.53
2022-07-30T05:14:09.250Z,21.74
2022-07-30T05:17:14.901Z,21.89
2022-07-30T05:20:20.339Z,21.97
2022-07-30T05:23:50.074Z,22.18
2022-07-30T05:27:26.181Z,22.23
2022-07-30T05:30:31.900Z,22.35
2022-07-30T05:33:42.350Z,22.35
2022-07-30T05:36:51.758Z,22.38
2022-07-30T05:40:02.804Z,22.45
2022-07-30T05:43:41.253Z,22.70
2022-07-30T05:46:47.059Z,22.53
2022-07-30T05:49:53.515Z,22.49
2022-07-30T05:52:59.164Z,22.69
2022-07-30T05:56:34.158Z,22.89
2022-07-30T05:59:50.732Z,22.72
2022-07-30T06:02:59.801Z,22.90
2022-07-30T06:06:05.580Z,22.88
2022-07-30T06:09:11.306Z,22.61
2022-07-30T06:12:17.524Z,22.87
2022-07-30T06:15:25.977Z,22.94
2022-07-30T06:18:32.960Z,22.89
2022-07-30T06:22:05.555Z,23.03
2022-07-30T06:25:09.992Z,23.06
2022-07-30T06:28:36.637Z,22.78
2022-07-30T06:31:42.359Z,23.12
2022-07-30T06:34:56.464Z,23.07
2022-07-30T06:38:08.644Z,23.28
2022-07-30T06:41:28.108Z,23.24
2022-07-30T06:44:36.920Z,22.82
2022-07-30T06:47:47.914Z,22.80
2022-07-30T06:50:53.160Z,22.97
2022-07-30T06:53:58.986Z,23.20
2022-07-30T06:57:27.626Z,22.79
2022-07-30T07:00:32.975Z,23.00
2022-07-30T07:03:43.611Z,23.50
2022-07-30T07:06:48.514Z,22.74
2022-07-30T07:10:04.172Z,23.39
2022-07-30T07:13:29.435Z,23.47
2022-07-30T07:16:36.519Z,23.57
2022-07-30T07:20:02.607Z,23.64
2022-07-30T07:23:15.181Z,23.68
2022-07-30T07:26:26.988Z,23.86
2022-07-30T07:29:32.547Z,23.73
2022-07-30T07:32:41.083Z,23.98
2022-07-30T07:35:50.488Z,23.96
2022-07-30T07:39:12.911Z,23.72
2022-07-30T07:42:21.355Z,24.03
2022-07-30T07:45:28.486Z,24.33
2022-07-30T07:48:40.826Z,24.40
2022-07-30T07:52:04.508Z,24.71
2022-07-30T07:55:11.641Z,24.35
2022-07-30T07:58:19.363Z,24.18
2022-07-30T08:01:32.813Z,24.59
2022-07-30T08:04:54.265Z,24.61
2022-07-30T08:08:11.314Z,24.95
2022-07-30T08:11:43.395Z,24.83
2022-07-30T08:15:12.019Z,24.82
2022-07-30T08:18:32.718Z,25.00
2022-07-30T08:21:50.535Z,24.72
2022-07-30T08:24:57.029Z,24.90
2022-07-30T08:28:03.843Z,25.45
2022-07-30T08:31:10.510Z,25.61
2022-07-30T08:34:15.985Z,25.73
2022-07-30T08:37:22.593Z,25.68
2022-07-30T08:40:31.398Z,25.53
2022-07-30T08:43:42.605Z,25.57
2022-07-30T08:46:52.358Z,25.78
2022-07-30T08:50:28.060Z,25.85
2022-07-30T08:54:06.564Z,26.21
2022-07-30T08:57:12.975Z,26.32
2022-07-30T09:00:19.548Z,25.91
2022-07-30T09:03:28.457Z,26.10
2022-07-30T09:06:37.931Z,26.34
2022-07-30T09:09:44.693Z,26.35
2022-07-30T09:12:50.165Z,26.32
2022-07-30T09:15:58.030Z,26.44
2022-07-30T09:19:22.779Z,26.58
2022-07-30T09:22:43.863Z,26.28
2022-07-30T09:26:09.454Z,26.12
2022-07-30T09:29:33.983Z,26.51
2022-07-30T09:32:58.955Z,26.41
2022-07-30T09:36:09.334Z,26.33
2022-07-30T09:39:59.028Z,26.51
2022-07-30T09:43:28.427Z,26.57
2022-07-30T09:46:51.422Z,26.46
2022-07-30T09:50:11.487Z,26.80
2022-07-30T09:53:18.037Z,26.56
2022-07-30T09:56:30.085Z,26.70
2022-07-30T09:59:38.753Z,26.71
2022-07-30T10:02:48.372Z,26.83
2022-07-30T10:06:38.361Z,26.64
2022-07-30T10:10:11.295Z,26.85
2022-07-30T10:13:20.625Z,26.81
2022-07-30T10:16:29.784Z,26.79
2022-07-30T10:19:39.799Z,26.77
2022-07-30T10:23:09.391Z,26.80
2022-07-30T10:26:17.309Z,27.16
2022-07-30T10:29:33.779Z,27.28
2022-07-30T10:32:42.394Z,27.04
2022-07-30T10:35:49.587Z,27.03
2022-07-30T10:38:56.703Z,27.22
2022-07-30T10:42:28.913Z,27.19
2022-07-30T10:45:46.314Z,27.33
2022-07-30T10:48:53.121Z,27.12
2022-07-30T10:51:59.432Z,27.37
2022-07-30T10:55:15.769Z,27.75
2022-07-30T10:58:23.103Z,27.48
2022-07-30T11:01:51.757Z,27.79
2022-07-30T11:05:17.968Z,27.86
2022-07-30T11:08:35.722Z,27.74
2022-07-30T11:12:02.173Z,27.41
2022-07-30T11:15:18.548Z,27.67
2022-07-30T11:18:27.285Z,27.75
2022-07-30T11:21:36.390Z,27.57
2022-07-30T11:24:45.490Z,27.61
2022-07-30T11:27:51.704Z,27.75
2022-07-30T11:30:57.203Z,27.67
2022-07-30T11:34:35.210Z,27.75
2022-07-30T11:38:07.447Z,28.13
2022-07-30T11:41:13.162Z,27.82
2022-07-30T11:44:37.500Z,28.03
2022-07-30T11:47:44.385Z,27.95
2022-07-30T11:50:55.491Z,28.07
2022-07-30T11:54:05.546Z,28.11
2022-07-30T11:57:11.140Z,28.11
2022-07-30T12:00:18.787Z,27.99
2022-07-30T12:03:29.813Z,28.12
2022-07-30T12:06:45.362Z,28.20
2022-07-30T12:09:50.844Z,28.32
2022-07-30T12:13:11.828Z,28.47
2022-07-30T12:16:18.033Z,28.31
2022-07-30T12:19:25.169Z,28.67
2022-07-30T12:22:33.372Z,28.79
2022-07-30T12:25:47.548Z,28.42
2022-07-30T12:28:59.785Z,28.75
2022-07-30T12:32:05.411Z,28.60
2022-07-30T12:35:11.552Z,28.79
2022-07-30T12:38:18.887Z,28.89
2022-07-30T12:41:42.930Z,28.93
2022-07-30T12:44:51.468Z,29.02
2022-07-30T12:48:00.447Z,29.08
2022-07-30T12:51:11.247Z,29.09
2022-07-30T12:54:21.177Z,29.11
2022-07-30T12:57:26.978Z,29.10
2022-07-30T13:00:51.049Z,29.16
2022-07-30T13:04:06.292Z,29.01
2022-07-30T13:07:13.031Z,29.01
2022-07-30T13:10:19.229Z,29.30
2022-07-30T13:13:24.508Z,29.42
2022-07-30T13:16:33.529Z,29.43
2022-07-30T13:19:38.953Z,29.31
2022-07-30T13:22:44.960Z,29.26
2022-07-30T13:25:51.020Z,29.64
2022-07-30T13:29:01.630Z,29.47
2022-07-30T13:32:07.920Z,29.66
2022-07-30T13:35:13.285Z,29.70
2022-07-30T13:38:18.989Z,29.46
2022-07-30T13:41:25.657Z,29.74
2022-07-30T13:44:31.861Z,29.62
2022-07-30T13:47:37.575Z,29.57
2022-07-30T13:50:43.678Z,29.69
2022-07-30T13:53:50.156Z,29.62
2022-07-30T13:56:55.860Z,29.73
2022-07-30T14:00:02.063Z,29.81
2022-07-30T14:03:13.559Z,29.89
2022-07-30T14:06:19.859Z,29.84
2022-07-30T14:09:25.018Z,29.89
2022-07-30T14:12:30.386Z,30.10
2022-07-30T14:15:36.044Z,30.29
2022-07-30T14:18:44.496Z,30.19
2022-07-30T14:21:49.701Z,30.09
2022-07-30T14:24:55.074Z,30.08
2022-07-30T14:28:00.889Z,30.29
2022-07-30T14:31:06.243Z,30.30
2022-07-30T14:34:11.651Z,30.22
2022-07-30T14:37:17.684Z,30.32
2022-07-30T14:40:23.333Z,30.35
2022-07-30T14:43:28.804Z,30.18
2022-07-30T14:46:34.364Z,30.46
2022-07-30T14:49:40.537Z,30.52
2022-07-30T14:52:47.794Z,30.58
2022-07-30T14:55:53.538Z,30.64
2022-07-30T14:58:59.185Z,30.67
2022-07-30T15:02:05.503Z,30.74
2022-07-30T15:05:16.798Z,30.63
2022-07-30T15:08:22.460Z,30.56
2022-07-30T15:11:28.297Z,30.74
2022-07-30T15:14:40.033Z,30.76
2022-07-30T15:17:45.925Z,30.99
2022-07-30T15:20:51.692Z,31.03
2022-07-30T15:23:57.382Z,31.11
2022-07-30T15:27:02.959Z,30.99
2022-07-30T15:30:08.575Z,31.12
2022-07-30T15:33:14.393Z,30.84
2022-07-30T15:36:20.002Z,31.04
2022-07-30T15:39:25.628Z,31.01
2022-07-30T15:42:34.420Z,31.06
2022-07-30T15:45:55.357Z,31.20
2022-07-30T15:49:02.920Z,31.26
2022-07-30T15:52:08.801Z,31.22
2022-07-30T15:55:14.256Z,31.16
2022-07-30T15:58:19.995Z,31.35
2022-07-30T16:01:25.630Z,31.18
2022-07-30T16:04:33.485Z,31.41
2022-07-30T16:07:38.692Z,31.38
2022-07-30T16:10:44.380Z,31.18
2022-07-30T16:13:50.596Z,31.11
2022-07-30T16:16:56.876Z,31.28
2022-07-30T16:20:03.918Z,31.51
2022-07-30T16:23:13.364Z,31.43
2022-07-30T16:26:21.816Z,31.30
2022-07-30T16:29:27.550Z,31.35
2022-07-30T16:32:33.065Z,31.28
2022-07-30T16:35:48.950Z,31.20
2022-07-30T16:38:56.619Z,31.33
2022-07-30T16:42:02.377Z,31.24
2022-07-30T16:45:09.025Z,31.43
2022-07-30T16:48:14.444Z,31.16
2022-07-30T16:51:20.185Z,31.10
2022-07-30T16:54:26.030Z,31.16
2022-07-30T16:57:31.616Z,31.04
2022-07-30T17:00:37.629Z,31.25
2022-07-30T17:03:43.390Z,31.30
2022-07-30T17:06:51.898Z,31.91
2022-07-30T17:09:58.572Z,30.95
2022-07-30T17:13:05.035Z,30.34
2022-07-30T17:16:10.596Z,30.03
2022-07-30T17:19:15.994Z,29.77
2022-07-30T17:22:21.371Z,29.58
2022-07-30T17:25:28.002Z,29.45
2022-07-30T17:28:34.367Z,29.27
2022-07-30T17:31:42.449Z,29.12
2022-07-30T17:34:49.682Z,29.15
2022-07-30T17:37:55.462Z,29.04
2022-07-30T17:41:00.811Z,28.94
2022-07-30T17:44:06.155Z,28.97
2022-07-30T17:47:14.652Z,28.97
2022-07-30T17:50:22.124Z,28.91
2022-07-30T17:53:27.924Z,28.81
2022-07-30T17:56:33.519Z,28.87
2022-07-30T17:59:39.172Z,28.76
2022-07-30T18:02:44.717Z,28.66
2022-07-30T18:05:50.544Z,28.50
2022-07-30T18:08:56.754Z,28.47
2022-07-30T18:12:02.110Z,28.42
2022-07-30T18:15:09.368Z,28.19
2022-07-30T18:18:15.245Z,28.11
2022-07-30T18:21:21.268Z,27.94
2022-07-30T18:24:27.039Z,27.97
2022-07-30T18:27:34.177Z,27.82
2022-07-30T18:30:40.575Z,27.75
2022-07-30T18:33:46.352Z,27.73
2022-07-30T18:36:53.576Z,27.63
2022-07-30T18:39:58.662Z,27.36
2022-07-30T18:43:06.239Z,27.33
2022-07-30T18:46:11.604Z,27.28
2022-07-30T18:49:37.168Z,27.25
2022-07-30T18:52:43.041Z,27.19
2022-07-30T18:55:48.564Z,27.12
2022-07-30T18:58:53.964Z,27.03
2022-07-30T19:01:59.725Z,26.94
2022-07-30T19:05:09.128Z,26.87
2022-07-30T19:08:15.369Z,26.90
2022-07-30T19:11:20.768Z,26.88
2022-07-30T19:14:26.222Z,26.89
2022-07-30T19:17:46.231Z,26.83
2022-07-30T19:20:52.125Z,26.79
2022-07-30T19:23:58.009Z,26.68
2022-07-30T19:27:03.332Z,26.57
2022-07-30T19:30:09.452Z,26.52
2022-07-30T19:33:15.964Z,26.31
2022-07-30T19:36:21.360Z,26.20
2022-07-30T19:39:26.920Z,26.11
2022-07-30T19:42:31.865Z,26.15
2022-07-30T19:45:47.254Z,26.13
2022-07-30T19:48:53.322Z,26.15
2022-07-30T19:52:10.054Z,26.13
2022-07-30T19:55:35.844Z,26.05
2022-07-30T19:58:42.213Z,25.92
2022-07-30T20:01:47.878Z,25.91
2022-07-30T20:04:57.237Z,25.77
2022-07-30T20:08:04.751Z,25.78
2022-07-30T20:11:10.693Z,25.72
2022-07-30T20:14:23.256Z,25.71
2022-07-30T20:17:29.029Z,25.55
2022-07-30T20:20:40.927Z,25.62
2022-07-30T20:23:46.614Z,25.55
2022-07-30T20:26:52.297Z,25.53
2022-07-30T20:29:58.564Z,25.55
2022-07-30T20:33:03.925Z,25.62
2022-07-30T20:36:10.611Z,25.66
2022-07-30T20:39:18.294Z,25.64
2022-07-30T20:42:24.819Z,25.63
2022-07-30T20:45:40.379Z,25.64
2022-07-30T20:48:47.034Z,25.62
2022-07-30T20:51:53.599Z,25.66
2022-07-30T20:54:59.561Z,25.68
2022-07-30T20:58:16.648Z,25.71
2022-07-30T21:01:23.632Z,25.74
2022-07-30T21:04:29.010Z,25.53
2022-07-30T21:07:36.466Z,25.28
2022-07-30T21:10:44.590Z,25.05
2022-07-30T21:13:50.103Z,24.92
2022-07-30T21:16:57.151Z,25.03
2022-07-30T21:20:04.040Z,25.17
2022-07-30T21:23:20.689Z,25.16
2022-07-30T21:26:28.134Z,25.11
2022-07-30T21:29:33.931Z,25.12
2022-07-30T21:32:43.535Z,25.14
2022-07-30T21:35:49.117Z,25.01
2022-07-30T21:38:55.046Z,24.96
2022-07-30T21:42:00.798Z,24.69
2022-07-30T21:45:10.048Z,24.57
2022-07-30T21:48:16.556Z,24.58
2022-07-30T21:51:23.622Z,24.58
2022-07-30T21:54:45.202Z,24.52
2022-07-30T21:57:53.780Z,24.39
2022-07-30T22:01:16.998Z,24.47
2022-07-30T22:04:24.368Z,24.49
2022-07-30T22:07:33.005Z,24.44
2022-07-30T22:10:44.781Z,24.28
2022-07-30T22:13:54.205Z,24.19
2022-07-30T22:17:00.720Z,24.15
2022-07-30T22:20:11.710Z,24.12
2022-07-30T22:23:18.011Z,24.05
2022-07-30T22:26:23.994Z,24.07
2022-07-30T22:29:34.150Z,23.99
2022-07-30T22:32:41.622Z,23.95
2022-07-30T22:35:49.815Z,23.93
2022-07-30T22:38:58.896Z,23.82
2022-07-30T22:42:05.614Z,23.83
2022-07-30T22:45:34.018Z,23.79
2022-07-30T22:48:44.837Z,23.66
2022-07-30T22:52:03.746Z,23.77
2022-07-30T22:55:15.415Z,23.76
2022-07-30T22:58:29.706Z,23.60
2022-07-30T23:01:37.192Z,23.64
2022-07-30T23:04:48.359Z,23.73
2022-07-30T23:07:55.682Z,23.57
2022-07-30T23:11:01.226Z,23.51
2022-07-30T23:14:09.053Z,23.46
2022-07-30T23:17:14.797Z,23.54
2022-07-30T23:20:21.511Z,23.51
2022-07-30T23:23:27.313Z,23.71
2022-07-30T23:26:36.818Z,23.75
2022-07-30T23:29:42.170Z,23.63
2022-07-30T23:32:47.798Z,23.49
2022-07-30T23:35:54.237Z,23.49
2022-07-30T23:39:00.031Z,23.56
2022-07-30T23:42:05.663Z,23.47
2022-07-30T23:45:11.600Z,23.51
2022-07-30T23:48:17.005Z,23.49
2022-07-30T23:51:22.745Z,23.35
2022-07-30T23:54:29.226Z,23.62
2022-07-30T23:57:34.884Z,23.50
